Time;durP1;ratioP1;P1;durP2;ratioP2;P2;SDS_P1;SDS_P2;PMS_P1;PMS_P2;Temp;Humidity;BMP_temperature;BMP_pressure;BME280_temperature;BME280_humidity;BME280_pressure;Samples;Min_cycle;Max_cycle;Signal;HPM_P1;HPM_P2
2023/01/22 00:01:23;;;;;;;2.00;1.90;;;4.90;99.90;;;;;;6214850;23;20004;-75
2023/01/22 00:03:49;;;;;;;1.83;1.73;;;4.90;99.90;;;;;;6214898;23;20079;-75
2023/01/22 00:06:15;;;;;;;1.90;1.67;;;4.90;99.90;;;;;;6215266;23;20039;-75
2023/01/22 00:08:41;;;;;;;1.98;1.80;;;4.90;99.90;;;;;;6214968;23;20001;-75
2023/01/22 00:11:08;;;;;;;1.48;1.38;;;4.90;99.90;;;;;;6215087;23;20298;-75
2023/01/22 00:13:34;;;;;;;2.55;1.73;;;4.90;99.90;;;;;;6214702;23;20004;-75
2023/01/22 00:16:00;;;;;;;3.72;1.77;;;4.90;99.90;;;;;;6215293;23;20011;-75
2023/01/22 00:18:25;;;;;;;2.03;1.60;;;4.90;99.90;;;;;;6216934;23;20073;-75
2023/01/22 00:20:53;;;;;;;2.33;2.05;;;4.90;99.90;;;;;;6189321;23;20000;-75
2023/01/22 00:23:19;;;;;;;2.20;1.80;;;4.90;99.90;;;;;;6214822;23;20076;-75
2023/01/22 00:25:45;;;;;;;1.85;1.75;;;4.90;99.90;;;;;;6215597;23;20028;-75
2023/01/22 00:28:11;;;;;;;3.47;1.90;;;5.00;99.90;;;;;;6188719;23;20314;-75
2023/01/22 00:30:37;;;;;;;1.85;1.75;;;5.00;99.90;;;;;;6215734;23;20412;-75
2023/01/22 00:33:04;;;;;;;1.45;1.30;;;5.00;99.90;;;;;;6215527;23;20005;-75
2023/01/22 00:35:30;;;;;;;2.50;2.10;;;5.00;99.90;;;;;;6188564;23;20028;-75
2023/01/22 00:37:55;;;;;;;2.47;1.95;;;5.00;99.90;;;;;;6215288;23;20324;-75
2023/01/22 00:40:21;;;;;;;1.75;1.65;;;5.00;99.90;;;;;;6188007;23;20063;-75
2023/01/22 00:42:47;;;;;;;2.20;1.90;;;5.00;99.90;;;;;;6214229;23;20016;-75
2023/01/22 00:45:14;;;;;;;1.70;1.60;;;5.00;99.90;;;;;;6214544;23;20004;-75
2023/01/22 00:47:40;;;;;;;1.77;1.67;;;5.00;99.90;;;;;;6187785;23;20058;-75
2023/01/22 00:50:06;;;;;;;1.85;1.65;;;5.00;99.90;;;;;;6187566;23;20079;-75
2023/01/22 00:52:32;;;;;;;1.63;1.42;;;5.00;99.90;;;;;;6215057;23;20053;-75
2023/01/22 00:54:57;;;;;;;2.75;1.58;;;5.10;99.90;;;;;;6215679;23;20440;-75
2023/01/22 00:57:23;;;;;;;2.05;1.50;;;5.10;99.90;;;;;;6216092;23;20043;-75
2023/01/22 00:59:51;;;;;;;2.45;2.10;;;5.10;99.90;;;;;;6216527;23;19997;-75
2023/01/22 01:02:17;;;;;;;2.40;1.42;;;5.10;99.90;;;;;;6216248;23;20032;-75
2023/01/22 01:04:43;;;;;;;2.30;2.10;;;5.10;99.90;;;;;;6216240;23;20005;-75
2023/01/22 01:07:12;;;;;;;3.00;2.70;;;5.00;99.90;;;;;;6216281;23;20035;-75
2023/01/22 01:09:37;;;;;;;6.30;4.32;;;5.10;99.90;;;;;;6216472;23;20005;-75
2023/01/22 01:12:03;;;;;;;7.72;6.18;;;5.00;99.90;;;;;;6189313;23;20439;-75
2023/01/22 01:14:29;;;;;;;4.97;4.43;;;5.10;99.90;;;;;;6189192;23;20015;-75
2023/01/22 01:16:54;;;;;;;7.05;4.97;;;5.00;99.90;;;;;;6216583;23;19997;-75
2023/01/22 01:19:20;;;;;;;7.55;5.43;;;5.00;99.90;;;;;;6216231;23;19996;-75
2023/01/22 01:21:46;;;;;;;3.58;3.28;;;5.00;99.90;;;;;;6216115;23;20027;-75
2023/01/22 01:24:12;;;;;;;2.92;2.72;;;5.00;99.90;;;;;;6216410;23;20004;-75
2023/01/22 01:26:40;;;;;;;3.25;2.90;;;5.00;99.90;;;;;;6216282;23;20418;-75
2023/01/22 01:29:08;;;;;;;4.22;2.90;;;5.00;99.90;;;;;;6215429;23;20010;-75
2023/01/22 01:31:34;;;;;;;2.80;2.60;;;5.00;99.90;;;;;;6215886;23;20368;-75
2023/01/22 01:34:01;;;;;;;2.58;2.38;;;5.00;99.90;;;;;;6216006;23;20435;-75
2023/01/22 01:36:30;;;;;;;2.70;2.50;;;5.00;99.90;;;;;;6215897;23;19997;-75
2023/01/22 01:38:56;;;;;;;3.92;2.25;;;5.00;99.90;;;;;;6215756;23;20004;-75
2023/01/22 01:41:24;;;;;;;2.50;2.30;;;5.00;99.90;;;;;;6216046;23;20000;-75
2023/01/22 01:44:13;;;;;;;2.75;2.28;;;4.90;99.90;;;;;;6188815;23;20017;-75
2023/01/22 01:46:46;;;;;;;2.47;2.28;;;4.90;99.90;;;;;;6215880;23;20429;-75
2023/01/22 01:49:20;;;;;;;3.58;2.05;;;4.90;99.90;;;;;;6188994;23;20005;-75
2023/01/22 01:51:46;;;;;;;3.17;2.75;;;4.80;99.90;;;;;;6189031;23;20011;-75
2023/01/22 01:54:12;;;;;;;3.35;3.10;;;4.80;99.90;;;;;;6188851;23;20079;-75
2023/01/22 01:56:49;;;;;;;3.28;2.97;;;4.80;99.90;;;;;;6189275;23;20459;-75
2023/01/22 01:59:18;;;;;;;4.13;3.17;;;4.80;99.90;;;;;;6215603;23;19988;-75
2023/01/22 02:01:48;;;;;;;2.75;2.58;;;4.80;99.90;;;;;;6215728;23;20442;-75
2023/01/22 02:04:15;;;;;;;3.22;3.00;;;4.80;99.90;;;;;;6215613;23;20072;-75
2023/01/22 02:06:40;;;;;;;4.20;3.80;;;4.80;99.90;;;;;;6188713;23;20036;-75
2023/01/22 02:09:06;;;;;;;5.40;3.80;;;4.70;99.90;;;;;;6215675;23;20009;-75
2023/01/22 02:11:33;;;;;;;3.67;3.38;;;4.70;99.90;;;;;;6215587;23;20004;-75
2023/01/22 02:14:05;;;;;;;3.63;3.33;;;4.70;99.90;;;;;;6215125;23;20001;-75
2023/01/22 02:16:32;;;;;;;3.08;2.85;;;4.70;99.90;;;;;;6189071;23;20005;-75
2023/01/22 02:18:57;;;;;;;2.72;2.53;;;4.70;99.90;;;;;;6215543;23;20023;-75
2023/01/22 02:21:28;;;;;;;3.40;3.20;;;4.70;99.90;;;;;;6189115;23;20001;-75
2023/01/22 02:23:54;;;;;;;3.22;2.38;;;4.70;99.90;;;;;;6215706;23;19997;-75
2023/01/22 02:26:20;;;;;;;2.05;1.95;;;4.70;99.90;;;;;;6215584;23;20024;-75
2023/01/22 02:28:46;;;;;;;1.98;1.80;;;4.80;99.90;;;;;;6215288;23;20001;-75
2023/01/22 02:31:11;;;;;;;2.38;2.17;;;4.80;99.90;;;;;;6215538;23;20420;-75
2023/01/22 02:33:41;;;;;;;2.00;1.90;;;4.70;99.90;;;;;;6215467;23;20004;-75
2023/01/22 02:36:07;;;;;;;2.03;1.92;;;4.70;99.90;;;;;;6188485;23;20083;-75
2023/01/22 02:38:32;;;;;;;2.13;2.03;;;4.70;99.90;;;;;;6215164;23;20001;-75
2023/01/22 02:40:59;;;;;;;2.58;2.03;;;4.70;99.90;;;;;;6215139;23;20023;-75
2023/01/22 02:43:27;;;;;;;1.90;1.80;;;4.60;99.90;;;;;;6214932;23;20035;-75
2023/01/22 02:45:53;;;;;;;1.65;1.55;;;4.50;99.90;;;;;;6188771;23;20036;-75
2023/01/22 02:48:19;;;;;;;4.55;1.88;;;4.50;99.90;;;;;;6188823;23;20011;-75
2023/01/22 02:50:45;;;;;;;2.33;1.98;;;4.50;99.90;;;;;;6215377;23;20005;-75
2023/01/22 02:53:11;;;;;;;1.55;1.20;;;4.50;99.90;;;;;;6188637;23;20008;-75
2023/01/22 02:55:37;;;;;;;1.52;1.42;;;4.40;99.90;;;;;;6215299;23;20001;-75
2023/01/22 02:58:03;;;;;;;1.65;1.55;;;4.40;99.90;;;;;;6215443;23;20000;-75
2023/01/22 03:00:29;;;;;;;1.60;1.50;;;4.40;99.90;;;;;;6215243;23;20131;-75
2023/01/22 03:02:55;;;;;;;2.30;1.60;;;4.50;99.90;;;;;;6188432;23;20434;-75
2023/01/22 03:05:20;;;;;;;1.38;1.27;;;4.40;99.90;;;;;;6188371;23;20063;-76
2023/01/22 03:07:46;;;;;;;1.75;1.65;;;4.40;99.90;;;;;;6215197;23;20000;-75
2023/01/22 03:10:20;;;;;;;1.65;1.55;;;4.40;99.90;;;;;;6215114;23;20058;-75
2023/01/22 03:21:17;;;;;;;2.13;1.48;;;4.30;99.90;;;;;;6215122;23;20019;-75
2023/01/22 03:23:50;;;;;;;1.67;1.38;;;4.20;99.90;;;;;;6188274;23;20025;-75
2023/01/22 03:26:17;;;;;;;1.83;1.65;;;4.20;99.90;;;;;;6214916;23;20047;-75
2023/01/22 03:28:44;;;;;;;2.97;1.13;;;4.10;99.90;;;;;;6188306;23;20405;-75
2023/01/22 03:31:17;;;;;;;1.60;1.40;;;4.10;99.90;;;;;;6215014;23;19997;-75
2023/01/22 03:33:46;;;;;;;1.00;1.00;;;4.10;99.90;;;;;;6215018;23;20079;-75
2023/01/22 03:36:13;;;;;;;1.00;1.00;;;4.10;99.90;;;;;;6215298;23;20016;-75
2023/01/22 03:38:39;;;;;;;0.90;0.90;;;4.20;99.90;;;;;;6188658;23;20054;-75
2023/01/22 03:41:11;;;;;;;1.15;1.05;;;4.20;99.90;;;;;;6214844;23;19997;-75
2023/01/22 03:43:39;;;;;;;1.60;1.50;;;4.20;99.90;;;;;;6214411;23;20012;-75
2023/01/22 03:46:08;;;;;;;5.53;3.17;;;4.20;99.90;;;;;;6214999;23;20004;-75
2023/01/22 03:48:34;;;;;;;7.07;4.60;;;4.30;99.90;;;;;;6188287;23;20015;-75
2023/01/22 03:51:05;;;;;;;2.33;2.08;;;4.30;99.90;;;;;;6214971;23;20079;-75
2023/01/22 03:53:31;;;;;;;1.80;1.70;;;4.40;99.90;;;;;;6217323;23;20008;-75
2023/01/22 03:55:58;;;;;;;2.33;1.40;;;4.40;99.90;;;;;;6216641;23;20131;-75
2023/01/22 03:58:24;;;;;;;2.13;2.00;;;4.40;99.90;;;;;;6189902;23;20005;-75
2023/01/22 04:00:49;;;;;;;3.58;2.22;;;4.40;99.90;;;;;;6190251;23;20027;-75
2023/01/22 04:03:15;;;;;;;1.65;1.55;;;4.50;99.90;;;;;;6190387;23;20000;-75
2023/01/22 04:05:41;;;;;;;3.17;2.33;;;4.40;99.90;;;;;;6216917;23;20578;-75
2023/01/22 04:08:06;;;;;;;3.28;2.90;;;4.40;99.90;;;;;;6217057;23;20001;-75
2023/01/22 04:10:32;;;;;;;5.93;2.75;;;4.40;99.90;;;;;;6189998;23;20012;-75
2023/01/22 04:12:57;;;;;;;5.38;4.00;;;4.40;99.90;;;;;;6189984;23;20015;-75
2023/01/22 04:15:23;;;;;;;5.40;4.20;;;4.30;99.90;;;;;;6216649;23;20016;-75
2023/01/22 04:17:49;;;;;;;5.70;4.55;;;4.30;99.90;;;;;;6216755;23;20000;-75
2023/01/22 04:20:14;;;;;;;6.13;4.50;;;4.30;99.90;;;;;;6216709;23;20592;-75
2023/01/22 04:22:40;;;;;;;7.00;4.90;;;4.30;99.90;;;;;;6216793;23;20039;-75
2023/01/22 04:25:06;;;;;;;6.50;5.07;;;4.30;99.90;;;;;;6216685;23;20004;-75
2023/01/22 04:27:36;;;;;;;5.05;4.30;;;4.30;99.90;;;;;;6216735;23;20006;-75
2023/01/22 04:30:11;;;;;;;5.30;3.88;;;4.20;99.90;;;;;;6216609;23;20468;-75
2023/01/22 04:32:37;;;;;;;4.28;3.88;;;4.20;99.90;;;;;;6216945;23;20005;-75
2023/01/22 04:35:03;;;;;;;5.20;4.10;;;4.20;99.90;;;;;;6190010;23;20388;-75
2023/01/22 04:37:30;;;;;;;2.90;2.70;;;4.10;99.90;;;;;;6216633;23;20012;-75
2023/01/22 04:39:55;;;;;;;4.00;2.88;;;4.20;99.90;;;;;;6216049;23;19997;-75
2023/01/22 04:42:21;;;;;;;3.10;2.45;;;4.20;99.90;;;;;;6216572;23;20369;-75
2023/01/22 04:44:47;;;;;;;2.03;1.50;;;4.20;99.90;;;;;;6216400;23;20357;-75
2023/01/22 04:47:12;;;;;;;3.53;2.78;;;4.40;99.90;;;;;;6216444;23;20000;-75
2023/01/22 04:49:38;;;;;;;4.90;3.40;;;4.40;99.90;;;;;;6216384;23;20001;-75
2023/01/22 04:52:04;;;;;;;3.42;2.80;;;4.40;99.90;;;;;;6189634;23;20004;-75
2023/01/22 04:54:30;;;;;;;5.07;2.97;;;4.40;99.90;;;;;;6216592;23;20072;-75
2023/01/22 04:56:55;;;;;;;2.67;2.22;;;4.40;99.90;;;;;;6216485;23;19996;-75
2023/01/22 04:59:24;;;;;;;1.30;1.20;;;4.40;99.90;;;;;;6189710;23;20062;-75
2023/01/22 05:01:49;;;;;;;1.33;1.23;;;4.40;99.90;;;;;;6216274;23;20492;-75
2023/01/22 05:04:16;;;;;;;1.00;1.00;;;4.40;99.90;;;;;;6216426;23;20043;-75
2023/01/22 05:06:41;;;;;;;0.98;0.98;;;4.40;99.90;;;;;;6216235;23;20009;-75
2023/01/22 05:09:07;;;;;;;1.73;1.10;;;4.40;99.90;;;;;;6216173;23;20008;-75
2023/01/22 05:11:33;;;;;;;1.52;1.42;;;4.50;99.90;;;;;;6189455;23;20015;-75
2023/01/22 05:13:58;;;;;;;1.02;1.02;;;4.40;99.90;;;;;;6216067;23;20011;-75
2023/01/22 05:16:24;;;;;;;0.90;0.80;;;4.30;99.90;;;;;;6216271;23;20004;-75
2023/01/22 05:18:50;;;;;;;1.85;1.75;;;4.40;99.90;;;;;;6216396;23;20412;-75
2023/01/22 05:21:15;;;;;;;2.15;1.95;;;4.50;99.90;;;;;;6216254;23;20427;-75
2023/01/22 05:23:42;;;;;;;2.25;2.00;;;4.40;99.90;;;;;;6216345;23;20528;-75
2023/01/22 05:26:09;;;;;;;2.60;2.35;;;4.40;99.90;;;;;;6215956;23;20020;-75
2023/01/22 05:28:35;;;;;;;2.20;2.00;;;4.50;99.90;;;;;;6215902;23;20314;-75
2023/01/22 05:31:00;;;;;;;2.00;1.90;;;4.50;99.90;;;;;;6216131;23;20043;-75
2023/01/22 05:33:30;;;;;;;2.88;1.27;;;4.40;99.90;;;;;;6216098;23;20075;-75
2023/01/22 05:35:57;;;;;;;1.52;1.42;;;4.40;99.90;;;;;;6189264;23;20322;-75
2023/01/22 05:38:24;;;;;;;1.85;1.30;;;4.40;99.90;;;;;;6216100;23;20000;-75
2023/01/22 05:40:50;;;;;;;1.10;1.10;;;4.30;99.90;;;;;;6215968;23;19996;-75
2023/01/22 05:43:15;;;;;;;1.63;1.52;;;4.30;99.90;;;;;;6215660;23;20020;-76
2023/01/22 05:45:44;;;;;;;1.17;1.17;;;4.30;99.90;;;;;;6216259;23;20083;-75
2023/01/22 05:48:10;;;;;;;2.65;1.13;;;4.40;99.90;;;;;;6189329;23;20009;-75
2023/01/22 05:50:36;;;;;;;1.23;1.08;;;4.40;99.90;;;;;;6188823;23;20096;-75
2023/01/22 05:53:02;;;;;;;1.17;1.08;;;4.40;99.90;;;;;;6215818;23;20005;-75
2023/01/22 05:55:28;;;;;;;1.50;1.05;;;4.30;99.90;;;;;;6215550;23;20008;-75
2023/01/22 05:57:53;;;;;;;2.25;1.08;;;4.40;99.90;;;;;;6189279;23;20119;-75
2023/01/22 06:00:19;;;;;;;1.20;1.10;;;4.40;99.90;;;;;;6215835;23;20001;-76
2023/01/22 06:02:45;;;;;;;1.00;1.00;;;4.40;99.90;;;;;;6215831;23;20003;-77
2023/01/22 06:05:11;;;;;;;1.40;0.90;;;4.40;99.90;;;;;;6189182;23;20012;-76
2023/01/22 06:07:36;;;;;;;0.70;0.70;;;4.50;99.90;;;;;;6216192;23;20464;-76
2023/01/22 06:10:02;;;;;;;0.90;0.90;;;4.50;99.90;;;;;;6189133;23;20036;-76
2023/01/22 06:12:28;;;;;;;0.90;0.90;;;4.50;99.90;;;;;;6189292;23;20016;-76
2023/01/22 06:14:54;;;;;;;0.82;0.82;;;4.50;99.90;;;;;;6188865;23;20005;-77
2023/01/22 06:17:20;;;;;;;0.90;0.90;;;4.50;99.90;;;;;;6215774;23;20001;-77
2023/01/22 06:19:46;;;;;;;1.20;0.98;;;4.50;99.90;;;;;;6189171;23;20024;-77
2023/01/22 06:22:12;;;;;;;0.90;0.90;;;4.60;99.90;;;;;;6215734;23;20055;-77
2023/01/22 06:24:38;;;;;;;2.22;0.90;;;4.60;99.90;;;;;;6215833;23;20011;-76
2023/01/22 06:27:04;;;;;;;1.50;1.40;;;4.60;99.90;;;;;;6215971;23;20427;-76
2023/01/22 06:29:32;;;;;;;5.00;3.58;;;4.60;99.90;;;;;;6188918;23;20500;-77
2023/01/22 06:31:58;;;;;;;5.88;4.25;;;4.60;99.90;;;;;;6188793;23;20005;-76
2023/01/22 06:34:24;;;;;;;10.27;6.43;;;4.60;99.90;;;;;;6188994;23;20009;-76
2023/01/22 06:36:50;;;;;;;14.68;8.63;;;4.60;99.90;;;;;;6188986;23;20000;-76
2023/01/22 06:39:16;;;;;;;7.13;5.40;;;4.60;99.90;;;;;;6215602;23;20012;-76
2023/01/22 06:41:41;;;;;;;4.22;3.25;;;4.60;99.90;;;;;;6215170;23;20001;-76
2023/01/22 06:44:07;;;;;;;2.22;2.00;;;4.60;99.90;;;;;;6215388;23;20092;-76
2023/01/22 06:46:33;;;;;;;2.95;1.55;;;4.60;99.90;;;;;;6215675;23;20402;-76
2023/01/22 06:49:00;;;;;;;1.00;1.00;;;4.60;99.90;;;;;;6215488;23;20027;-76
2023/01/22 06:51:27;;;;;;;1.00;1.00;;;4.60;99.90;;;;;;6215443;23;20000;-77
2023/01/22 06:53:53;;;;;;;2.53;1.00;;;4.60;99.90;;;;;;6215314;23;20062;-76
2023/01/22 06:56:19;;;;;;;1.13;0.95;;;4.60;99.90;;;;;;6215255;23;20035;-76
2023/01/22 06:58:44;;;;;;;2.15;0.77;;;4.60;99.90;;;;;;6188654;23;20004;-76
2023/01/22 07:01:10;;;;;;;1.38;0.95;;;4.60;99.90;;;;;;6215352;23;20541;-77
2023/01/22 07:03:36;;;;;;;1.20;1.10;;;4.60;99.90;;;;;;6188706;23;20000;-76
2023/01/22 07:06:03;;;;;;;0.82;0.70;;;4.60;99.90;;;;;;6188806;23;20409;-76
2023/01/22 07:08:32;;;;;;;1.35;0.90;;;4.60;99.90;;;;;;6215706;23;20008;-76
2023/01/22 07:11:02;;;;;;;0.70;0.70;;;4.60;99.90;;;;;;6215248;23;20333;-77
2023/01/22 07:13:27;;;;;;;1.25;0.90;;;4.60;99.90;;;;;;6215447;23;20007;-77
2023/01/22 07:15:53;;;;;;;2.03;1.83;;;4.60;99.90;;;;;;6215134;23;20008;-77
2023/01/22 07:18:22;;;;;;;1.50;1.40;;;4.60;99.90;;;;;;6215298;23;20023;-76
2023/01/22 07:20:48;;;;;;;1.65;1.55;;;4.60;99.90;;;;;;6215399;23;20413;-76
2023/01/22 07:23:14;;;;;;;4.25;3.60;;;4.60;99.90;;;;;;6188700;23;20341;-76
2023/01/22 07:25:40;;;;;;;3.67;3.28;;;4.70;99.90;;;;;;6215379;23;20076;-77
2023/01/22 07:28:06;;;;;;;2.83;2.63;;;4.70;99.90;;;;;;6217634;23;20425;-77
2023/01/22 07:30:32;;;;;;;4.55;3.45;;;4.70;99.90;;;;;;6216957;23;20007;-77
2023/01/22 07:33:02;;;;;;;5.97;3.67;;;4.70;99.90;;;;;;6190659;23;20376;-77
2023/01/22 07:35:29;;;;;;;7.40;3.58;;;4.80;99.90;;;;;;6217429;23;20440;-77
2023/01/22 07:37:57;;;;;;;2.58;2.38;;;4.80;99.90;;;;;;6190584;23;20032;-77
2023/01/22 07:40:23;;;;;;;2.92;1.90;;;4.80;99.90;;;;;;6190669;23;20088;-76
2023/01/22 07:42:50;;;;;;;1.35;1.25;;;4.80;99.90;;;;;;6217167;23;20013;-76
2023/01/22 07:45:18;;;;;;;1.95;1.30;;;4.80;99.90;;;;;;6190469;23;20103;-77
2023/01/22 07:47:55;;;;;;;2.25;1.20;;;4.90;99.90;;;;;;6217396;23;20004;-77
2023/01/22 07:50:22;;;;;;;1.67;1.58;;;4.90;99.90;;;;;;6189659;23;20004;-76
2023/01/22 07:52:48;;;;;;;3.17;1.70;;;4.90;99.90;;;;;;6216190;23;20008;-76
2023/01/22 07:55:14;;;;;;;1.50;1.40;;;4.90;99.90;;;;;;6216086;23;20463;-76
2023/01/22 07:57:39;;;;;;;5.45;1.52;;;5.00;99.90;;;;;;6215821;23;20001;-77
2023/01/22 08:00:09;;;;;;;3.08;1.67;;;5.00;99.90;;;;;;6215781;23;20035;-76
2023/01/22 08:02:39;;;;;;;3.42;1.65;;;5.10;99.90;;;;;;6215634;23;20027;-76
2023/01/22 08:05:06;;;;;;;1.48;1.38;;;5.20;99.90;;;;;;6216070;23;20001;-76
2023/01/22 08:07:32;;;;;;;0.80;0.80;;;5.30;99.90;;;;;;6216265;23;20008;-77
2023/01/22 08:09:57;;;;;;;0.93;0.93;;;5.40;99.90;;;;;;6189905;23;20458;-76
2023/01/22 08:12:23;;;;;;;1.85;1.75;;;5.50;99.90;;;;;;6216876;23;20012;-76
2023/01/22 08:14:49;;;;;;;11.95;7.95;;;5.60;99.90;;;;;;6189937;23;20008;-76
2023/01/22 08:17:14;;;;;;;23.85;14.10;;;5.60;99.90;;;;;;6216765;23;19997;-76
2023/01/22 08:19:43;;;;;;;125.72;54.80;;;5.60;99.90;;;;;;6216631;23;20007;-77
2023/01/22 08:22:09;;;;;;;51.42;30.95;;;5.60;99.90;;;;;;6216954;23;20456;-77
2023/01/22 08:24:35;;;;;;;14.02;10.50;;;5.60;99.90;;;;;;6190161;23;20044;-77
2023/01/22 08:27:01;;;;;;;11.48;7.93;;;5.50;99.90;;;;;;6216808;23;20047;-76
2023/01/22 08:29:26;;;;;;;12.48;10.55;;;5.50;99.90;;;;;;6216670;23;20004;-76
2023/01/22 08:31:52;;;;;;;20.48;14.30;;;5.50;99.90;;;;;;6216718;23;20051;-76
2023/01/22 08:34:19;;;;;;;10.68;8.23;;;5.50;99.90;;;;;;6216398;23;20005;-76
2023/01/22 08:36:45;;;;;;;10.60;8.80;;;5.50;99.90;;;;;;6216529;23;20035;-76
2023/01/22 08:39:12;;;;;;;11.38;9.18;;;5.50;99.90;;;;;;6217003;23;20001;-76
2023/01/22 08:41:38;;;;;;;14.95;9.68;;;5.50;99.90;;;;;;6216594;23;20000;-76
2023/01/22 08:44:04;;;;;;;18.30;12.48;;;5.60;99.90;;;;;;6189773;23;20087;-76
2023/01/22 08:46:30;;;;;;;17.13;11.80;;;5.60;99.90;;;;;;6216764;23;20043;-76
2023/01/22 08:48:55;;;;;;;26.35;13.32;;;5.60;99.90;;;;;;6216779;23;20000;-76
2023/01/22 08:51:23;;;;;;;40.28;20.30;;;5.60;99.90;;;;;;6216419;23;20082;-76
2023/01/22 08:53:49;;;;;;;30.50;15.85;;;5.60;99.90;;;;;;6189753;23;20005;-76
2023/01/22 08:56:15;;;;;;;18.52;13.20;;;5.60;99.90;;;;;;6216551;23;20000;-76
2023/01/22 08:58:41;;;;;;;19.33;13.68;;;5.60;99.90;;;;;;6216329;23;20003;-76
2023/01/22 09:01:06;;;;;;;28.42;16.77;;;5.60;99.90;;;;;;6216658;23;20071;-76
2023/01/22 09:03:32;;;;;;;25.20;16.75;;;5.70;99.90;;;;;;6216666;23;20004;-76
2023/01/22 09:05:58;;;;;;;28.23;18.95;;;5.70;99.90;;;;;;6189745;23;20092;-76
2023/01/22 09:08:24;;;;;;;25.65;18.00;;;5.70;99.90;;;;;;6216741;23;20001;-76
2023/01/22 09:10:50;;;;;;;34.45;19.27;;;5.80;99.90;;;;;;6216353;23;20028;-76
2023/01/22 09:13:15;;;;;;;27.17;18.15;;;5.80;99.90;;;;;;6216431;23;20000;-76
2023/01/22 09:15:41;;;;;;;24.73;17.80;;;5.90;99.90;;;;;;6216105;23;20008;-76
2023/01/22 09:18:06;;;;;;;26.27;18.85;;;6.00;99.90;;;;;;6216439;23;20029;-76
2023/01/22 09:20:32;;;;;;;32.63;20.85;;;6.00;99.90;;;;;;6216206;23;20051;-76
2023/01/22 09:22:58;;;;;;;29.30;19.10;;;6.00;99.90;;;;;;6216428;23;19988;-76
2023/01/22 09:25:25;;;;;;;28.42;18.42;;;6.10;99.90;;;;;;6216550;23;20059;-76
2023/01/22 09:27:56;;;;;;;22.35;15.65;;;6.20;99.90;;;;;;6216342;23;20096;-76
2023/01/22 09:30:25;;;;;;;21.63;14.95;;;6.20;99.90;;;;;;6216109;23;20001;-76
2023/01/22 09:32:51;;;;;;;12.70;10.45;;;6.30;99.90;;;;;;6216078;23;20004;-76
2023/01/22 09:35:16;;;;;;;13.45;9.95;;;6.30;99.90;;;;;;6216181;23;20080;-76
2023/01/22 09:37:42;;;;;;;9.73;8.68;;;6.30;99.90;;;;;;6188861;23;20005;-76
2023/01/22 09:40:21;;;;;;;11.05;8.68;;;6.40;99.90;;;;;;6189374;23;20444;-76
2023/01/22 09:42:48;;;;;;;12.02;8.90;;;6.40;99.90;;;;;;6215840;23;20448;-76
2023/01/22 09:45:16;;;;;;;10.25;8.30;;;6.40;99.90;;;;;;6189052;23;20314;-76
2023/01/22 09:47:48;;;;;;;9.45;7.43;;;6.40;99.90;;;;;;6215904;23;20386;-76
2023/01/22 09:50:14;;;;;;;;;;;6.40;99.90;;;;;;6216128;23;20032;-76
2023/01/22 09:52:40;;;;;;;8.75;7.85;;;6.40;99.90;;;;;;6215842;23;19900;-76
2023/01/22 09:55:12;;;;;;;8.93;8.02;;;6.40;99.90;;;;;;6189316;23;20015;-76
2023/01/22 09:57:45;;;;;;;13.00;8.05;;;6.30;99.90;;;;;;6215962;23;20001;-76
2023/01/22 10:00:15;;;;;;;;;;;6.40;99.90;;;;;;6215951;23;20080;-75
2023/01/22 10:02:50;;;;;;;;;;;6.40;99.90;;;;;;6189502;23;20252;-75
2023/01/22 10:05:15;;;;;;;;;;;6.30;99.90;;;;;;6215712;23;20305;-76
2023/01/22 10:07:43;;;;;;;;;;;6.30;99.90;;;;;;6188578;23;19900;-75
2023/01/22 10:10:17;;;;;;;;;;;6.30;99.90;;;;;;6215331;23;20350;-75
2023/01/22 10:12:43;;;;;;;;;;;6.30;99.90;;;;;;6215553;23;19900;-75
2023/01/22 10:15:13;;;;;;;;;;;6.30;99.90;;;;;;6188287;23;19910;-75
2023/01/22 10:17:38;;;;;;;;;;;6.30;99.90;;;;;;6215183;23;19904;-75
2023/01/22 10:20:05;;;;;;;;;;;6.30;99.90;;;;;;6214863;23;19900;-76
2023/01/22 10:22:31;;;;;;;;;;;6.30;99.90;;;;;;6214514;23;19927;-75
2023/01/22 10:24:57;;;;;;;;;;;6.40;99.90;;;;;;6214541;23;19900;-76
2023/01/22 10:27:43;;;;;;;;;;;6.40;99.90;;;;;;6214524;23;19978;-76
2023/01/22 10:30:15;;;;;;;;;;;6.40;99.90;;;;;;6214071;23;19899;-76
2023/01/22 10:32:41;;;;;;;;;;;6.40;99.90;;;;;;6215700;23;19907;-75
2023/01/22 10:35:09;;;;;;;;;;;6.40;99.90;;;;;;6216189;23;19982;-75
2023/01/22 10:37:52;;;;;;;;;;;6.40;99.90;;;;;;6189604;23;19900;-75
2023/01/22 10:40:20;;;;;;;;;;;6.50;99.90;;;;;;6215999;23;19899;-75
2023/01/22 10:42:47;;;;;;;;;;;6.50;99.90;;;;;;6216069;23;19912;-75
2023/01/22 10:45:17;;;;;;;;;;;6.60;99.90;;;;;;6215923;23;19975;-75
2023/01/22 10:47:44;;;;;;;;;;;6.60;99.90;;;;;;6216056;23;19916;-75
2023/01/22 10:50:13;;;;;;;;;;;6.70;99.90;;;;;;6189002;23;19966;-75
2023/01/22 10:52:43;;;;;;;;;;;6.70;99.90;;;;;;6215982;23;19927;-76
2023/01/22 10:55:25;;;;;;;;;;;6.80;99.90;;;;;;6215878;23;19911;-76
2023/01/22 10:58:04;;;;;;;;;;;6.80;99.90;;;;;;6215806;23;19975;-75
2023/01/22 11:00:33;;;;;;;;;;;6.80;99.90;;;;;;6215567;23;19900;-76
2023/01/22 11:02:59;;;;;;;;;;;6.90;99.90;;;;;;6215665;23;19950;-76
2023/01/22 11:05:25;;;;;;;;;;;7.00;99.90;;;;;;6215831;23;20288;-75
2023/01/22 11:08:11;;;;;;;;;;;7.10;99.90;;;;;;6189079;23;20003;-75
2023/01/22 11:10:46;;;;;;;;;;;7.10;99.90;;;;;;6214335;23;19926;-75
2023/01/22 11:13:18;;;;;;;;;;;7.20;99.90;;;;;;6215638;23;19907;-75
2023/01/22 11:15:46;;;;;;;;;;;7.30;99.90;;;;;;6215609;23;19954;-75
2023/01/22 11:18:20;;;;;;;;;;;7.40;99.90;;;;;;6188660;23;19938;-75
2023/01/22 11:20:52;;;;;;;;;;;7.30;99.60;;;;;;6215629;23;19900;-75
2023/01/22 11:23:23;;;;;;;;;;;7.30;97.80;;;;;;6215590;23;19982;-75
2023/01/22 11:25:58;;;;;;;;;;;7.30;99.50;;;;;;6188119;23;19900;-75
2023/01/22 11:28:29;;;;;;;;;;;7.40;98.80;;;;;;6214875;23;20209;-75
2023/01/22 11:31:02;;;;;;;;;;;7.50;99.90;;;;;;6187850;23;20522;-76
2023/01/22 11:33:46;;;;;;;;;;;7.60;99.90;;;;;;6214852;23;20200;-76
2023/01/22 11:36:12;;;;;;;;;;;7.60;98.60;;;;;;6214797;23;19908;-75
2023/01/22 11:38:52;;;;;;;;;;;7.60;99.20;;;;;;6214694;23;20293;-75
2023/01/22 11:41:27;;;;;;;;;;;7.60;99.80;;;;;;6188876;23;19900;-76
2023/01/22 11:44:18;;;;;;;;;;;7.60;96.80;;;;;;6188608;23;19954;-75
2023/01/22 11:46:44;;;;;;;;;;;7.60;98.10;;;;;;6158144;23;19903;-75
2023/01/22 11:49:09;;;;;;;;;;;7.80;99.70;;;;;;6215534;23;19900;-75
2023/01/22 11:51:39;;;;;;;;;;;7.90;99.80;;;;;;6215888;23;19900;-76
2023/01/22 11:54:23;;;;;;;;;;;7.90;99.90;;;;;;6215329;23;19899;-76
2023/01/22 11:57:01;;;;;;;;;;;8.00;99.00;;;;;;6215723;23;19904;-76
2023/01/22 11:59:35;;;;;;;;;;;8.10;99.00;;;;;;6215352;23;20253;-76
2023/01/22 12:02:01;;;;;;;;;;;8.10;99.60;;;;;;6215729;23;20444;-76
2023/01/22 12:04:27;;;;;;;;;;;8.20;98.00;;;;;;6215756;23;20467;-75
2023/01/22 12:07:11;;;;;;;;;;;8.10;98.00;;;;;;6215692;23;19896;-76
2023/01/22 12:09:55;;;;;;;;;;;8.10;96.60;;;;;;6188183;23;19979;-75
2023/01/22 12:12:26;;;;;;;;;;;8.20;96.90;;;;;;6216244;23;19983;-76
2023/01/22 12:15:01;;;;;;;;;;;8.20;97.20;;;;;;6216972;23;19904;-75
2023/01/22 12:17:26;;;;;;;;;;;8.30;98.00;;;;;;6217069;23;20331;-75
2023/01/22 12:20:05;;;;;;;;;;;8.30;98.40;;;;;;6190399;23;19904;-76
2023/01/22 12:22:31;;;;;;;;;;;8.40;98.40;;;;;;6217036;23;19899;-76
2023/01/22 12:25:02;;;;;;;;;;;8.30;97.30;;;;;;6216674;23;20334;-76
2023/01/22 12:27:30;;;;;;;;;;;8.30;97.30;;;;;;6217060;23;19903;-76
2023/01/22 12:30:11;;;;;;;;;;;8.40;97.00;;;;;;6216469;23;19907;-76
2023/01/22 12:32:36;;;;;;;;;;;8.40;97.00;;;;;;6216560;23;19931;-76
2023/01/22 12:35:04;;;;;;;;;;;8.50;95.60;;;;;;6190075;23;19908;-75
2023/01/22 12:37:40;;;;;;;;;;;8.50;97.00;;;;;;6217009;23;19900;-76
2023/01/22 12:40:06;;;;;;;;;;;8.60;97.10;;;;;;6216694;23;19900;-75
2023/01/22 12:42:39;;;;;;;;;;;8.60;96.60;;;;;;6216706;23;19943;-75
2023/01/22 12:45:16;;;;;;;;;;;8.60;96.40;;;;;;6214202;23;19935;-75
2023/01/22 12:47:44;;;;;;;;;;;8.60;95.70;;;;;;6217147;23;20463;-75
2023/01/22 12:50:21;;;;;;;;;;;8.70;95.40;;;;;;6217114;23;19950;-75
2023/01/22 12:52:57;;;;;;;;;;;8.70;95.30;;;;;;6190283;23;19900;-76
2023/01/22 12:55:29;;;;;;;;;;;8.60;94.60;;;;;;6216808;23;19910;-76
2023/01/22 12:57:55;;;;;;;;;;;8.60;94.30;;;;;;6190396;23;19903;-76
2023/01/22 13:00:30;;;;;;;;;;;8.60;95.10;;;;;;6216615;23;19978;-76
2023/01/22 13:02:56;;;;;;;;;;;8.60;94.20;;;;;;6190401;23;19907;-76
2023/01/22 13:05:25;;;;;;;;;;;8.70;95.50;;;;;;6217032;23;20031;-76
2023/01/22 13:08:20;;;;;;;;;;;8.70;95.80;;;;;;6190223;23;19979;-75
2023/01/22 13:11:02;;;;;;;;;;;8.70;95.10;;;;;;6184305;23;19900;-75
2023/01/22 13:13:32;;;;;;;;;;;8.70;94.80;;;;;;6216456;23;20208;-75
2023/01/22 13:16:02;;;;;;;;;;;8.70;96.00;;;;;;6216367;23;19908;-75
2023/01/22 13:18:30;;;;;;;;;;;8.70;95.70;;;;;;6216724;23;19900;-75
2023/01/22 13:21:04;;;;;;;;;;;8.70;95.80;;;;;;6216681;23;19932;-76
2023/01/22 13:23:31;;;;;;;;;;;8.70;96.60;;;;;;6216519;23;19958;-75
2023/01/22 13:25:56;;;;;;;;;;;8.70;95.80;;;;;;6189819;23;19900;-76
2023/01/22 13:28:23;;;;;;;;;;;8.70;96.40;;;;;;6216336;23;19906;-75
2023/01/22 13:30:58;;;;;;;;;;;8.80;96.40;;;;;;6214602;23;19900;-74